Time;durP1;ratioP1;P1;durP2;ratioP2;P2;SDS_P1;SDS_P2;PMS_P1;PMS_P2;Temp;Humidity;BMP_temperature;BMP_pressure;BME280_temperature;BME280_humidity;BME280_pressure;Samples;Min_cycle;Max_cycle;Signal;HPM_P1;HPM_P2
2021/06/24 00:01:36;;;;;;;7.03;4.10;;;18.60;99.90;;;;;;5030033;28;20886;-50
2021/06/24 00:04:02;;;;;;;8.18;4.18;;;18.60;99.90;;;;;;5028895;28;20391;-50
2021/06/24 00:06:28;;;;;;;7.32;4.35;;;18.60;99.90;;;;;;5029081;28;20418;-50
2021/06/24 00:08:54;;;;;;;7.70;4.00;;;18.60;99.90;;;;;;5029162;28;20500;-50
2021/06/24 00:11:21;;;;;;;6.85;3.65;;;18.50;99.90;;;;;;5029148;28;20383;-51
2021/06/24 00:13:48;;;;;;;6.60;4.03;;;18.60;99.90;;;;;;5029971;28;20386;-50
2021/06/24 00:16:14;;;;;;;7.70;3.90;;;18.50;99.90;;;;;;5029471;28;20383;-50
2021/06/24 00:18:40;;;;;;;6.70;3.50;;;18.50;99.90;;;;;;5029247;28;20750;-50
2021/06/24 00:21:06;;;;;;;6.37;3.93;;;18.40;99.90;;;;;;5028452;28;20398;-50
2021/06/24 00:23:33;;;;;;;6.32;3.63;;;18.40;99.90;;;;;;5029656;28;20375;-50
2021/06/24 00:25:59;;;;;;;7.32;3.80;;;18.30;99.90;;;;;;5028680;28;20410;-50
2021/06/24 00:28:27;;;;;;;8.35;3.90;;;18.30;99.90;;;;;;5029346;28;20919;-50
2021/06/24 00:30:54;;;;;;;7.72;3.95;;;18.40;99.90;;;;;;5028702;28;20438;-51
2021/06/24 00:33:20;;;;;;;7.32;3.70;;;18.20;99.90;;;;;;5032280;28;20476;-50
2021/06/24 00:35:46;;;;;;;6.80;4.20;;;18.20;99.90;;;;;;5033396;28;20478;-50
2021/06/24 00:38:16;;;;;;;7.43;4.82;;;18.20;99.90;;;;;;5031133;28;20482;-50
2021/06/24 00:40:43;;;;;;;7.00;4.57;;;18.10;99.90;;;;;;5033133;28;20403;-50
2021/06/24 00:43:14;;;;;;;8.30;4.70;;;18.10;99.90;;;;;;5032059;28;20383;-50
2021/06/24 00:45:41;;;;;;;9.07;4.68;;;18.00;99.90;;;;;;5033001;28;20387;-51
2021/06/24 00:48:09;;;;;;;7.10;5.00;;;18.00;99.90;;;;;;5032389;28;20451;-50
2021/06/24 00:50:36;;;;;;;7.90;5.30;;;18.00;99.90;;;;;;5032886;28;20517;-50
2021/06/24 00:53:03;;;;;;;9.60;5.10;;;17.90;99.90;;;;;;5032208;28;20393;-50
2021/06/24 00:55:44;;;;;;;9.40;5.80;;;18.00;99.90;;;;;;5033200;28;20861;-50
2021/06/24 00:58:21;;;;;;;7.82;5.20;;;18.10;99.90;;;;;;5032000;28;20475;-50
2021/06/24 01:00:53;;;;;;;9.20;6.00;;;18.10;99.90;;;;;;5032748;28;20387;-50
2021/06/24 01:03:19;;;;;;;8.32;5.30;;;18.10;99.90;;;;;;5032735;28;20390;-50
2021/06/24 01:05:45;;;;;;;9.90;6.10;;;18.10;99.90;;;;;;5032670;28;20422;-51
2021/06/24 01:08:14;;;;;;;10.53;5.80;;;18.20;99.90;;;;;;5031598;28;21065;-50
2021/06/24 01:10:41;;;;;;;8.53;6.20;;;18.30;99.90;;;;;;5032458;28;20394;-50
2021/06/24 01:13:07;;;;;;;9.10;5.97;;;18.30;99.90;;;;;;5031894;28;20387;-51
2021/06/24 01:15:38;;;;;;;9.02;6.45;;;18.30;99.90;;;;;;5032623;28;20386;-50
2021/06/24 01:18:04;;;;;;;9.65;6.53;;;18.40;99.90;;;;;;5031310;28;21101;-50
2021/06/24 01:20:32;;;;;;;10.60;6.40;;;18.40;99.90;;;;;;5032346;28;20383;-51
2021/06/24 01:22:59;;;;;;;10.05;6.28;;;18.40;99.90;;;;;;5031707;28;20382;-50
2021/06/24 01:25:25;;;;;;;9.48;5.93;;;18.40;99.90;;;;;;5032190;28;20384;-51
2021/06/24 01:28:03;;;;;;;10.18;6.80;;;18.40;99.90;;;;;;5031920;28;20719;-53
2021/06/24 01:30:30;;;;;;;9.50;6.18;;;18.40;99.90;;;;;;5031962;28;20686;-51
2021/06/24 01:32:56;;;;;;;10.40;7.07;;;18.30;99.90;;;;;;5031542;28;20737;-50
2021/06/24 01:35:24;;;;;;;9.45;7.05;;;18.40;99.90;;;;;;5031695;28;20388;-50
2021/06/24 01:37:56;;;;;;;9.93;7.20;;;18.50;99.90;;;;;;5031727;28;20390;-53
2021/06/24 01:40:21;;;;;;;9.80;6.78;;;18.50;99.90;;;;;;5032090;28;20403;-50
2021/06/24 01:42:47;;;;;;;10.43;7.50;;;18.50;99.90;;;;;;5031111;28;20389;-50
2021/06/24 01:45:13;;;;;;;10.03;7.10;;;18.50;99.90;;;;;;5029611;28;20766;-50
2021/06/24 01:47:39;;;;;;;9.38;6.60;;;18.50;99.90;;;;;;5032032;28;21147;-51
2021/06/24 01:50:09;;;;;;;10.35;6.80;;;18.50;99.90;;;;;;5030959;28;20485;-50
2021/06/24 01:52:35;;;;;;;8.90;7.10;;;18.50;99.90;;;;;;5031780;28;20406;-50
2021/06/24 01:55:00;;;;;;;8.20;6.30;;;18.50;99.90;;;;;;5030837;28;20714;-50
2021/06/24 01:57:26;;;;;;;9.03;6.10;;;18.50;99.90;;;;;;5031425;28;20390;-50
2021/06/24 01:59:52;;;;;;;9.20;6.43;;;18.40;99.90;;;;;;5030937;28;20411;-53
2021/06/24 02:02:17;;;;;;;8.07;5.83;;;18.40;99.90;;;;;;5031075;28;20395;-50
2021/06/24 02:04:44;;;;;;;13.10;6.90;;;18.40;99.90;;;;;;5031426;28;20749;-51
2021/06/24 02:07:10;;;;;;;9.90;6.70;;;18.50;99.90;;;;;;5029530;28;20422;-51
2021/06/24 02:09:35;;;;;;;10.10;6.63;;;18.40;99.90;;;;;;5030979;28;20745;-50
2021/06/24 02:12:01;;;;;;;10.53;7.20;;;18.30;99.90;;;;;;5030340;28;20405;-50
2021/06/24 02:14:28;;;;;;;11.85;6.60;;;18.20;99.90;;;;;;5030999;28;20441;-52
2021/06/24 02:16:53;;;;;;;10.07;6.63;;;18.20;99.90;;;;;;5030043;28;20398;-50
2021/06/24 02:19:19;;;;;;;10.30;7.10;;;18.00;99.90;;;;;;5031122;28;20410;-50
2021/06/24 02:21:45;;;;;;;11.53;6.97;;;18.00;99.90;;;;;;5030903;28;20811;-51
2021/06/24 02:24:11;;;;;;;9.55;6.10;;;18.00;99.90;;;;;;5030246;28;20888;-51
2021/06/24 02:26:37;;;;;;;8.80;5.80;;;17.90;99.90;;;;;;5030955;28;20854;-50
2021/06/24 02:29:03;;;;;;;12.23;7.00;;;17.90;99.90;;;;;;5029999;28;20394;-50
2021/06/24 02:31:29;;;;;;;10.40;6.15;;;18.00;99.90;;;;;;5031337;28;20388;-50
2021/06/24 02:33:55;;;;;;;10.70;6.80;;;17.90;99.90;;;;;;5030046;28;20399;-51
2021/06/24 02:36:21;;;;;;;9.70;6.18;;;18.00;99.90;;;;;;5030522;28;20414;-51
2021/06/24 02:38:46;;;;;;;10.37;6.60;;;18.00;99.90;;;;;;5030406;28;20873;-50
2021/06/24 02:41:12;;;;;;;10.38;6.30;;;18.10;99.90;;;;;;5029851;28;21015;-50
2021/06/24 02:43:37;;;;;;;8.93;6.38;;;18.10;99.90;;;;;;5030440;28;20895;-51
2021/06/24 02:46:03;;;;;;;9.77;6.60;;;18.20;99.90;;;;;;5029745;28;20387;-50
2021/06/24 02:48:29;;;;;;;9.00;6.17;;;18.30;99.90;;;;;;5030537;28;20383;-51
2021/06/24 02:50:55;;;;;;;10.13;6.47;;;18.30;99.90;;;;;;5029556;28;20387;-51
2021/06/24 02:53:20;;;;;;;10.13;6.57;;;18.30;99.90;;;;;;5030253;28;20483;-50
2021/06/24 02:55:46;;;;;;;10.25;6.38;;;18.20;99.90;;;;;;5029993;28;20875;-51
2021/06/24 02:58:12;;;;;;;11.88;6.40;;;18.30;99.90;;;;;;5029606;28;20371;-50
2021/06/24 03:00:39;;;;;;;9.83;6.90;;;18.30;99.90;;;;;;5030320;28;20463;-50
2021/06/24 03:03:04;;;;;;;10.35;6.82;;;18.40;99.90;;;;;;5029020;28;20433;-50
2021/06/24 03:05:30;;;;;;;9.45;6.60;;;18.40;99.90;;;;;;5030365;28;20438;-51
2021/06/24 03:07:56;;;;;;;10.80;6.73;;;18.40;99.90;;;;;;5029974;28;20416;-50
2021/06/24 03:10:22;;;;;;;10.43;7.13;;;18.40;99.90;;;;;;5030339;28;20878;-50
2021/06/24 03:12:48;;;;;;;10.23;7.40;;;18.30;99.90;;;;;;5030382;28;20476;-50
2021/06/24 03:15:14;;;;;;;9.45;6.38;;;18.10;99.90;;;;;;5029286;28;20447;-51
2021/06/24 03:17:40;;;;;;;11.20;6.88;;;18.20;99.90;;;;;;5030027;28;20383;-50
2021/06/24 03:20:08;;;;;;;11.27;7.20;;;18.20;99.90;;;;;;5029062;28;20461;-51
2021/06/24 03:22:34;;;;;;;10.20;7.40;;;18.10;99.90;;;;;;5029842;28;20387;-50
2021/06/24 03:25:01;;;;;;;12.73;7.00;;;18.00;99.90;;;;;;5029056;28;20379;-50
2021/06/24 03:27:27;;;;;;;10.50;6.70;;;18.10;99.90;;;;;;5030048;28;20507;-50
2021/06/24 03:29:53;;;;;;;11.27;7.03;;;18.10;99.90;;;;;;5029227;28;20418;-53
2021/06/24 03:32:18;;;;;;;10.17;6.60;;;16.60;99.90;;;;;;5029021;28;20395;-50
2021/06/24 03:34:44;;;;;;;11.57;7.10;;;18.20;99.90;;;;;;5030280;28;20398;-50
2021/06/24 03:37:10;;;;;;;13.80;7.10;;;18.20;99.90;;;;;;5028421;28;20395;-51
2021/06/24 03:39:36;;;;;;;10.70;7.00;;;18.20;99.90;;;;;;5029441;28;20417;-50
2021/06/24 03:42:01;;;;;;;11.90;7.57;;;18.20;99.90;;;;;;5027758;28;20532;-50
2021/06/24 03:44:27;;;;;;;10.70;6.95;;;18.10;99.90;;;;;;5029455;28;20383;-50
2021/06/24 03:46:53;;;;;;;10.87;6.90;;;18.10;99.90;;;;;;5029365;28;20405;-53
2021/06/24 03:49:18;;;;;;;11.60;7.20;;;18.00;99.90;;;;;;5029569;28;20478;-51
2021/06/24 03:51:44;;;;;;;10.82;7.07;;;18.00;99.90;;;;;;5029687;28;20413;-50
2021/06/24 03:54:10;;;;;;;11.03;7.50;;;18.10;99.90;;;;;;5028763;28;20679;-51
2021/06/24 03:56:36;;;;;;;12.93;6.63;;;18.00;99.90;;;;;;5029786;28;20375;-50
2021/06/24 03:59:02;;;;;;;12.10;6.63;;;18.10;99.90;;;;;;5027355;28;20876;-50
2021/06/24 04:01:29;;;;;;;11.00;7.00;;;18.10;99.90;;;;;;5029509;28;20421;-50
2021/06/24 04:03:54;;;;;;;12.80;7.93;;;18.10;99.90;;;;;;5028806;28;20394;-53
2021/06/24 04:06:20;;;;;;;14.40;8.50;;;18.00;99.90;;;;;;5029710;28;20907;-50
2021/06/24 04:08:46;;;;;;;11.27;7.28;;;17.80;99.90;;;;;;5033641;28;20790;-50
2021/06/24 04:11:11;;;;;;;10.80;6.65;;;17.70;99.90;;;;;;5032720;28;21100;-51
2021/06/24 04:13:37;;;;;;;10.20;7.47;;;17.80;99.90;;;;;;5033440;28;20383;-50
2021/06/24 04:16:06;;;;;;;11.00;7.03;;;17.90;99.90;;;;;;5032482;28;20441;-50
2021/06/24 04:18:32;;;;;;;10.30;7.50;;;18.00;99.90;;;;;;5033710;28;20415;-51
2021/06/24 04:20:58;;;;;;;14.13;9.18;;;18.10;99.90;;;;;;5032739;28;20387;-51
2021/06/24 04:23:24;;;;;;;13.17;8.40;;;18.20;99.90;;;;;;5033180;28;21231;-50
2021/06/24 04:25:49;;;;;;;12.30;8.55;;;18.20;99.90;;;;;;5033154;28;20387;-50
2021/06/24 04:28:15;;;;;;;11.45;7.93;;;18.20;99.90;;;;;;5032310;28;20410;-50
2021/06/24 04:30:41;;;;;;;12.53;8.30;;;18.20;99.90;;;;;;5033216;28;20466;-50
2021/06/24 04:33:07;;;;;;;13.98;8.30;;;18.20;99.90;;;;;;5031996;28;20425;-50
2021/06/24 04:35:33;;;;;;;15.63;8.80;;;18.30;99.90;;;;;;5032476;28;20395;-50
2021/06/24 04:37:59;;;;;;;12.30;8.95;;;18.20;99.90;;;;;;5031642;28;20809;-50
2021/06/24 04:40:25;;;;;;;13.88;8.55;;;18.20;99.90;;;;;;5032203;28;20410;-51
2021/06/24 04:42:51;;;;;;;13.10;8.87;;;18.20;99.90;;;;;;5032545;28;20930;-50
2021/06/24 04:45:17;;;;;;;11.00;8.00;;;18.30;99.90;;;;;;5031864;28;20402;-50
2021/06/24 04:47:43;;;;;;;11.45;7.70;;;18.50;99.90;;;;;;5032617;28;20469;-50
2021/06/24 04:50:10;;;;;;;10.60;7.90;;;18.60;99.90;;;;;;5031417;28;20401;-50
2021/06/24 04:52:35;;;;;;;10.90;7.60;;;18.80;99.90;;;;;;5032254;28;20430;-50
2021/06/24 04:55:02;;;;;;;13.95;8.20;;;19.00;99.90;;;;;;5026175;28;20376;-50
2021/06/24 04:57:28;;;;;;;12.40;9.00;;;18.90;99.90;;;;;;5032470;28;20384;-50
2021/06/24 04:59:53;;;;;;;14.93;11.40;;;18.80;99.90;;;;;;5031560;28;20888;-50
2021/06/24 05:02:19;;;;;;;11.98;10.10;;;18.70;99.90;;;;;;5030728;28;20849;-50
2021/06/24 05:04:45;;;;;;;13.70;10.40;;;18.70;99.90;;;;;;5032104;28;20478;-51
2021/06/24 05:07:11;;;;;;;15.27;11.10;;;18.80;99.90;;;;;;5027582;28;20847;-51
2021/06/24 05:09:40;;;;;;;19.85;11.40;;;18.80;99.90;;;;;;5030054;28;20398;-51
2021/06/24 05:12:10;;;;;;;15.02;10.57;;;18.90;99.90;;;;;;5031463;28;20391;-51
2021/06/24 05:14:37;;;;;;;13.65;10.32;;;19.10;99.90;;;;;;5032133;28;20387;-51
2021/06/24 05:17:05;;;;;;;10.90;8.50;;;19.20;99.90;;;;;;5031473;28;20482;-51
2021/06/24 05:19:33;;;;;;;10.35;8.18;;;19.30;99.90;;;;;;5029392;28;20423;-51
2021/06/24 05:21:58;;;;;;;10.30;6.85;;;19.50;99.90;;;;;;5031584;28;20392;-51
2021/06/24 05:24:24;;;;;;;11.53;7.53;;;19.70;99.90;;;;;;5032229;28;20387;-51
2021/06/24 05:26:50;;;;;;;10.40;6.83;;;20.10;99.90;;;;;;5029715;28;20475;-50
2021/06/24 05:29:15;;;;;;;10.77;5.90;;;20.60;99.90;;;;;;5031025;28;20748;-50
2021/06/24 05:31:41;;;;;;;9.63;4.93;;;20.80;99.90;;;;;;5029566;28;20399;-49
2021/06/24 05:34:07;;;;;;;9.77;6.55;;;21.10;99.90;;;;;;5030872;28;20494;-49
2021/06/24 05:36:33;;;;;;;9.80;6.80;;;21.20;99.90;;;;;;5026430;28;20406;-50
2021/06/24 05:39:00;;;;;;;11.15;6.20;;;20.90;99.90;;;;;;5030591;28;20464;-50
2021/06/24 05:41:25;;;;;;;10.47;6.17;;;20.90;99.90;;;;;;5031229;28;20449;-50
2021/06/24 05:43:51;;;;;;;9.50;6.20;;;21.20;99.90;;;;;;5029004;28;20896;-49
2021/06/24 05:46:17;;;;;;;8.27;5.88;;;21.10;99.90;;;;;;5029412;28;20504;-48
2021/06/24 05:48:43;;;;;;;8.80;6.50;;;21.00;99.90;;;;;;5031463;28;20399;-49
2021/06/24 05:51:09;;;;;;;9.73;6.80;;;20.90;99.90;;;;;;5024610;28;21288;-49
2021/06/24 05:53:34;;;;;;;10.98;7.43;;;21.60;99.90;;;;;;5029195;28;20398;-50
2021/06/24 05:56:00;;;;;;;9.83;7.70;;;20.60;99.90;;;;;;5029716;28;20437;-49
2021/06/24 05:58:29;;;;;;;11.45;8.35;;;20.50;99.90;;;;;;5030451;28;20800;-49
2021/06/24 06:00:56;;;;;;;12.60;7.68;;;20.10;99.90;;;;;;5030215;28;20391;-53
2021/06/24 06:03:23;;;;;;;11.30;8.05;;;19.80;99.90;;;;;;5029937;28;20405;-50
2021/06/24 06:05:49;;;;;;;12.00;7.00;;;19.90;99.90;;;;;;5031319;28;20407;-50
2021/06/24 06:08:16;;;;;;;9.68;5.10;;;20.30;99.90;;;;;;5030307;28;20386;-50
2021/06/24 06:10:41;;;;;;;8.70;5.07;;;21.30;99.90;;;;;;5031186;28;20394;-50
2021/06/24 06:13:08;;;;;;;8.32;4.60;;;21.90;99.90;;;;;;5030217;28;20379;-52
2021/06/24 06:15:39;;;;;;;8.60;5.40;;;21.70;99.90;;;;;;5031359;28;20418;-52
2021/06/24 06:18:17;;;;;;;8.20;5.80;;;21.60;99.90;;;;;;5030747;28;20383;-50
2021/06/24 06:20:44;;;;;;;8.20;5.93;;;21.20;99.90;;;;;;5031203;28;20857;-50
2021/06/24 06:23:14;;;;;;;8.25;5.15;;;21.10;99.90;;;;;;5028260;28;20379;-48
2021/06/24 06:25:40;;;;;;;9.13;4.78;;;21.30;99.90;;;;;;5031210;28;20394;-49
2021/06/24 06:28:05;;;;;;;8.23;5.05;;;21.60;99.90;;;;;;5029711;28;20415;-49
2021/06/24 06:30:31;;;;;;;9.30;5.70;;;21.50;99.90;;;;;;5029468;28;20413;-49
2021/06/24 06:32:57;;;;;;;8.50;5.23;;;21.40;99.90;;;;;;5030632;28;20383;-52
2021/06/24 06:35:22;;;;;;;6.90;4.80;;;21.20;99.90;;;;;;5030028;28;20399;-49
2021/06/24 06:37:49;;;;;;;8.77;4.88;;;21.40;99.90;;;;;;5030255;28;20441;-49
2021/06/24 06:40:15;;;;;;;6.32;4.30;;;22.10;99.90;;;;;;5030176;28;20468;-49
2021/06/24 06:42:41;;;;;;;7.00;4.32;;;22.50;99.90;;;;;;5030207;28;20395;-49
2021/06/24 06:45:08;;;;;;;7.40;4.60;;;22.50;99.90;;;;;;5029633;28;20375;-49
2021/06/24 06:47:34;;;;;;;9.65;4.45;;;22.50;99.90;;;;;;5026619;28;20554;-51
2021/06/24 06:49:59;;;;;;;5.50;3.03;;;23.10;99.90;;;;;;5027500;28;20808;-50
2021/06/24 06:52:25;;;;;;;5.20;2.73;;;23.90;99.90;;;;;;5028901;28;20379;-50
2021/06/24 06:54:51;;;;;;;5.70;2.60;;;24.30;99.90;;;;;;5029804;28;20390;-51
2021/06/24 06:57:16;;;;;;;5.70;2.97;;;24.50;99.90;;;;;;5028619;28;20389;-50
2021/06/24 06:59:42;;;;;;;6.72;3.10;;;23.90;99.90;;;;;;5029299;28;20418;-51
2021/06/24 07:02:09;;;;;;;5.80;2.75;;;23.60;99.90;;;;;;5029132;28;20445;-50
2021/06/24 07:04:34;;;;;;;5.65;3.00;;;24.30;99.90;;;;;;5029660;28;20411;-50
2021/06/24 07:07:00;;;;;;;6.53;2.65;;;25.00;99.90;;;;;;5029498;28;20438;-50
2021/06/24 07:09:26;;;;;;;5.43;2.83;;;25.90;99.90;;;;;;5029759;28;20422;-50
2021/06/24 07:11:51;;;;;;;6.87;3.30;;;27.50;99.90;;;;;;5029473;28;20415;-50
2021/06/24 07:14:18;;;;;;;5.28;3.22;;;28.80;99.90;;;;;;5028230;28;20392;-51
2021/06/24 07:16:44;;;;;;;7.05;4.90;;;28.50;99.90;;;;;;5028188;28;20499;-48
2021/06/24 07:19:10;;;;;;;5.53;4.53;;;27.70;99.90;;;;;;5028589;28;20438;-49
2021/06/24 07:21:35;;;;;;;5.70;4.33;;;27.30;99.90;;;;;;5029931;28;20391;-50
2021/06/24 07:24:01;;;;;;;6.77;5.80;;;27.80;99.90;;;;;;5029050;28;20386;-50
2021/06/24 07:26:28;;;;;;;8.07;4.63;;;27.30;99.90;;;;;;5029544;28;20387;-50
2021/06/24 07:28:53;;;;;;;5.50;3.80;;;26.60;99.90;;;;;;5029278;28;20391;-55
2021/06/24 07:31:19;;;;;;;5.10;2.70;;;26.20;99.90;;;;;;5028156;28;20852;-51
2021/06/24 07:33:45;;;;;;;5.20;3.60;;;27.50;99.90;;;;;;5029418;28;20402;-51
2021/06/24 07:36:11;;;;;;;6.07;4.40;;;28.30;99.90;;;;;;5028318;28;20380;-52
2021/06/24 07:38:36;;;;;;;5.90;4.20;;;27.90;99.90;;;;;;5028886;28;20411;-51
2021/06/24 07:41:02;;;;;;;5.80;3.80;;;27.70;99.90;;;;;;5028762;28;20872;-51
2021/06/24 07:43:28;;;;;;;6.13;4.10;;;27.90;99.90;;;;;;5028633;28;20470;-52
2021/06/24 07:45:54;;;;;;;6.10;3.95;;;27.90;99.90;;;;;;5027467;28;20880;-51
2021/06/24 07:48:19;;;;;;;5.60;3.30;;;27.20;99.90;;;;;;5027727;28;20384;-51
2021/06/24 07:50:45;;;;;;;6.00;3.85;;;27.20;99.90;;;;;;5029217;28;20545;-51
2021/06/24 07:53:11;;;;;;;7.20;3.60;;;27.10;99.90;;;;;;5025119;28;20445;-51
2021/06/24 07:55:38;;;;;;;7.40;3.00;;;26.70;99.90;;;;;;5027135;28;20379;-54
2021/06/24 07:58:05;;;;;;;5.40;2.90;;;26.50;99.90;;;;;;5023382;28;20809;-51
2021/06/24 08:00:32;;;;;;;6.25;3.40;;;25.90;99.90;;;;;;5028271;28;20457;-51
2021/06/24 08:02:58;;;;;;;5.90;3.50;;;25.40;99.90;;;;;;5028115;28;20395;-56
2021/06/24 08:05:24;;;;;;;5.90;3.30;;;24.50;99.90;;;;;;5028927;28;20483;-51
2021/06/24 08:07:50;;;;;;;5.95;3.30;;;24.60;99.90;;;;;;5029082;28;20391;-51
2021/06/24 08:10:18;;;;;;;5.45;2.97;;;24.70;99.90;;;;;;5027680;28;20401;-50
2021/06/24 08:12:44;;;;;;;5.35;2.88;;;25.00;99.90;;;;;;5032822;28;20391;-51
2021/06/24 08:15:12;;;;;;;6.00;2.90;;;25.40;99.90;;;;;;5028491;28;20384;-50
2021/06/24 08:17:37;;;;;;;5.40;2.90;;;25.30;99.90;;;;;;5028362;28;20387;-51
2021/06/24 08:20:05;;;;;;;5.80;2.90;;;24.80;99.90;;;;;;5028294;28;21022;-50
2021/06/24 08:22:31;;;;;;;5.80;3.08;;;24.00;99.90;;;;;;5028787;28;20832;-50
2021/06/24 08:24:57;;;;;;;5.97;2.93;;;23.60;99.90;;;;;;5026982;28;20395;-55
2021/06/24 08:27:23;;;;;;;6.25;3.22;;;23.60;99.90;;;;;;5026099;28;20401;-51
2021/06/24 08:29:49;;;;;;;5.90;3.37;;;23.60;99.90;;;;;;5028247;28;20386;-51
2021/06/24 08:32:14;;;;;;;5.95;3.10;;;23.60;99.90;;;;;;5026016;28;20403;-53
2021/06/24 08:34:40;;;;;;;6.13;2.90;;;23.90;99.90;;;;;;5027975;28;20604;-51
2021/06/24 08:37:06;;;;;;;5.90;3.20;;;24.70;99.90;;;;;;5027813;28;20410;-51
2021/06/24 08:39:32;;;;;;;6.10;2.83;;;25.40;99.90;;;;;;5028147;28;20395;-52
2021/06/24 08:41:57;;;;;;;7.43;3.40;;;25.40;99.90;;;;;;5027941;28;20395;-56
2021/06/24 08:44:23;;;;;;;6.70;3.00;;;25.20;99.90;;;;;;5027560;28;20387;-49
2021/06/24 08:46:52;;;;;;;5.88;3.00;;;26.10;99.90;;;;;;5027456;28;20741;-50
2021/06/24 08:49:25;;;;;;;5.13;2.70;;;27.50;99.90;;;;;;5025474;28;20394;-52
2021/06/24 08:51:56;;;;;;;6.10;3.70;;;28.20;99.90;;;;;;5027979;28;20731;-51
2021/06/24 08:54:22;;;;;;;6.05;3.42;;;29.00;99.90;;;;;;5011673;28;20393;-50
2021/06/24 08:56:48;;;;;;;6.30;3.80;;;28.80;99.70;;;;;;5015711;28;20384;-51
2021/06/24 08:59:14;;;;;;;5.70;3.75;;;30.00;98.80;;;;;;5031413;28;20411;-52
2021/06/24 09:01:46;;;;;;;6.45;2.30;;;32.10;93.30;;;;;;5033006;28;20794;-51
2021/06/24 09:04:16;;;;;;;5.10;2.50;;;33.00;87.80;;;;;;5031055;28;20401;-51
2021/06/24 09:06:42;;;;;;;5.40;2.80;;;32.90;86.50;;;;;;5032328;28;20813;-50
2021/06/24 09:09:08;;;;;;;5.80;2.83;;;31.80;87.70;;;;;;5031582;28;20466;-51
2021/06/24 09:11:34;;;;;;;6.65;5.90;;;29.70;91.70;;;;;;5031871;28;20395;-50
2021/06/24 09:14:03;;;;;;;6.57;4.80;;;27.90;97.80;;;;;;5030658;28;21533;-51
2021/06/24 09:16:32;;;;;;;6.32;4.90;;;27.20;99.30;;;;;;5032270;28;20399;-50
2021/06/24 09:19:21;;;;;;;7.07;4.23;;;26.80;99.90;;;;;;5031514;28;20426;-54
2021/06/24 09:22:02;;;;;;;6.80;3.10;;;26.20;99.90;;;;;;5031696;28;20478;-51
2021/06/24 09:24:37;;;;;;;5.55;2.90;;;26.40;99.90;;;;;;5030645;28;20841;-51
2021/06/24 09:27:27;;;;;;;6.90;3.08;;;26.60;99.90;;;;;;5030257;28;20406;-51
2021/06/24 09:30:05;;;;;;;6.53;3.47;;;27.30;99.90;;;;;;5031567;28;20402;-51
2021/06/24 09:32:39;;;;;;;5.50;3.00;;;28.10;99.90;;;;;;5031826;28;20391;-51
2021/06/24 09:35:08;;;;;;;6.50;4.43;;;29.00;99.90;;;;;;5031144;28;20403;-53
2021/06/24 09:37:59;;;;;;;6.83;3.83;;;30.40;97.40;;;;;;5031727;28;20383;-51
2021/06/24 09:40:49;;;;;;;5.10;2.63;;;32.10;92.40;;;;;;5030829;28;20413;-50
2021/06/24 09:43:36;;;;;;;4.93;2.50;;;33.00;90.30;;;;;;5029168;28;20861;-51
2021/06/24 09:46:15;;;;;;;5.80;2.90;;;32.40;87.60;;;;;;5030488;28;20391;-55
2021/06/24 09:48:46;;;;;;;7.47;4.10;;;31.30;88.00;;;;;;5031283;28;20406;-51
2021/06/24 09:51:30;;;;;;;5.97;3.73;;;30.10;90.90;;;;;;5030522;28;20457;-51
2021/06/24 09:54:00;;;;;;;5.70;4.10;;;30.10;91.20;;;;;;5031633;28;20391;-51
2021/06/24 09:56:41;;;;;;;6.50;4.70;;;29.70;92.60;;;;;;5031166;28;20402;-52
2021/06/24 09:59:08;;;;;;;6.70;4.57;;;29.70;91.10;;;;;;5030508;28;20410;-51
2021/06/24 10:01:37;;;;;;;6.15;4.10;;;29.90;91.40;;;;;;5031287;28;20387;-52
2021/06/24 10:04:18;;;;;;;7.18;4.60;;;30.30;92.20;;;;;;5029720;28;20399;-52
2021/06/24 10:06:45;;;;;;;7.35;3.42;;;31.80;90.10;;;;;;5030811;28;20490;-50
2021/06/24 10:09:12;;;;;;;6.43;3.40;;;31.60;90.30;;;;;;5030480;28;20933;-49
2021/06/24 10:11:38;;;;;;;5.30;3.37;;;31.30;91.10;;;;;;5031114;28;20435;-51
2021/06/24 10:14:05;;;;;;;6.70;4.90;;;31.20;89.70;;;;;;5031250;28;20422;-51
2021/06/24 10:16:32;;;;;;;6.90;4.97;;;30.70;89.40;;;;;;5030944;28;20423;-51
2021/06/24 10:18:59;;;;;;;5.80;4.30;;;30.40;90.70;;;;;;5030758;28;20442;-55
2021/06/24 10:21:27;;;;;;;6.20;5.38;;;30.30;92.40;;;;;;5030985;28;20391;-51
2021/06/24 10:23:57;;;;;;;8.23;5.75;;;29.80;92.10;;;;;;5030719;28;20470;-50
2021/06/24 10:26:25;;;;;;;8.45;6.35;;;29.10;93.30;;;;;;5030614;28;20383;-50
2021/06/24 10:29:11;;;;;;;8.35;4.35;;;27.90;94.90;;;;;;5030890;28;20383;-51
2021/06/24 10:31:39;;;;;;;8.82;5.18;;;27.50;99.00;;;;;;5030577;28;20394;-50
2021/06/24 10:34:05;;;;;;;7.55;4.72;;;26.90;97.20;;;;;;5029299;28;20391;-50
2021/06/24 10:36:34;;;;;;;6.90;3.92;;;26.40;99.90;;;;;;5030404;28;20388;-52
2021/06/24 10:39:02;;;;;;;6.57;3.90;;;26.10;99.90;;;;;;5029603;28;20526;-52
2021/06/24 10:41:48;;;;;;;8.03;4.07;;;25.80;99.90;;;;;;5028815;28;20914;-51
2021/06/24 10:44:33;;;;;;;9.00;4.30;;;25.50;99.90;;;;;;5029578;28;20395;-50
2021/06/24 10:47:05;;;;;;;9.20;4.40;;;25.40;99.90;;;;;;5029060;28;20474;-55
2021/06/24 10:49:31;;;;;;;6.70;4.10;;;25.40;99.90;;;;;;5030545;28;20458;-50
2021/06/24 10:52:18;;;;;;;7.43;4.78;;;25.80;99.90;;;;;;5030025;28;20565;-51
2021/06/24 10:54:44;;;;;;;7.30;3.97;;;26.10;99.90;;;;;;5030191;28;20415;-52
2021/06/24 10:57:35;;;;;;;7.20;4.50;;;26.50;99.90;;;;;;5029033;28;20411;-50
2021/06/24 11:00:38;;;;;;;7.10;4.30;;;26.90;99.90;;;;;;5029482;28;20498;-55
2021/06/24 11:03:12;;;;;;;7.63;4.38;;;26.90;99.90;;;;;;5029406;28;20402;-51
2021/06/24 11:05:45;;;;;;;6.60;3.93;;;26.70;99.90;;;;;;5029801;28;20395;-49
2021/06/24 11:08:12;;;;;;;7.05;3.75;;;26.90;99.90;;;;;;5029466;28;20376;-49
2021/06/24 11:10:58;;;;;;;7.38;3.72;;;26.60;99.90;;;;;;5029946;28;20552;-50
2021/06/24 11:13:39;;;;;;;7.87;3.40;;;26.70;99.90;;;;;;5029442;28;20411;-50
2021/06/24 11:16:17;;;;;;;6.70;4.03;;;26.30;99.90;;;;;;5028957;28;20857;-50
2021/06/24 11:19:01;;;;;;;6.55;4.10;;;26.40;99.90;;;;;;5029753;28;20462;-51
2021/06/24 11:21:29;;;;;;;8.13;3.83;;;26.20;99.90;;;;;;5029358;28;20473;-50
2021/06/24 11:24:00;;;;;;;6.93;3.20;;;26.00;99.90;;;;;;5030014;28;20387;-51
2021/06/24 11:26:29;;;;;;;6.20;2.80;;;26.20;99.90;;;;;;5026666;28;20383;-51
2021/06/24 11:31:50;;;;;;;4.30;1.35;;;26.50;99.90;;;;;;5027976;28;20402;-50
2021/06/24 11:37:04;;;;;;;5.50;2.13;;;27.10;99.90;;;;;;5027684;28;20379;-54
2021/06/24 11:39:41;;;;;;;5.55;1.90;;;27.00;99.90;;;;;;5027827;28;20726;-50
2021/06/24 11:42:11;;;;;;;7.23;2.77;;;26.80;99.90;;;;;;5026033;28;20391;-50
2021/06/24 11:44:43;;;;;;;5.95;2.60;;;26.80;99.90;;;;;;5028346;28;20387;-52
2021/06/24 11:47:13;;;;;;;7.40;2.07;;;26.40;99.90;;;;;;5025583;28;20384;-50
2021/06/24 12:04:20;;;;;;;5.00;2.10;;;26.10;99.90;;;;;;5009197;28;20423;-51
2021/06/24 12:06:57;;;;;;;4.40;1.70;;;26.30;99.90;;;;;;5009734;28;20947;-51
2021/06/24 12:09:26;;;;;;;5.70;1.80;;;26.20;99.90;;;;;;5009194;28;20878;-50
2021/06/24 12:11:57;;;;;;;6.20;2.10;;;26.20;99.90;;;;;;5009662;28;20479;-51
2021/06/24 12:14:23;;;;;;;4.78;1.80;;;25.90;99.90;;;;;;5007758;28;20392;-51
2021/06/24 12:17:06;;;;;;;4.50;2.00;;;25.80;99.90;;;;;;5009876;28;20389;-52
2021/06/24 12:19:51;;;;;;;4.80;1.90;;;25.30;99.90;;;;;;5009782;28;20419;-53
2021/06/24 12:22:37;;;;;;;5.10;1.90;;;25.20;99.90;;;;;;5009077;28;20403;-52
2021/06/24 12:25:24;;;;;;;5.00;2.20;;;25.00;99.90;;;;;;5009085;28;20380;-55
2021/06/24 12:27:54;;;;;;;5.10;2.30;;;24.80;99.90;;;;;;5019616;28;20395;-51
2021/06/24 12:30:27;;;;;;;5.50;2.10;;;24.60;99.90;;;;;;5025941;28;20390;-54
2021/06/24 12:33:14;;;;;;;4.85;2.10;;;24.40;99.90;;;;;;5026787;28;21100;-52
2021/06/24 12:35:40;;;;;;;4.75;2.00;;;24.30;99.90;;;;;;5026574;28;20833;-52
2021/06/24 12:38:27;;;;;;;5.72;1.98;;;23.80;99.90;;;;;;5024720;28;20821;-54
2021/06/24 12:40:57;;;;;;;4.22;1.70;;;23.60;99.90;;;;;;5025708;28;21502;-50
2021/06/24 12:43:28;;;;;;;4.80;2.00;;;23.30;99.90;;;;;;5025547;28;20433;-50
2021/06/24 12:45:59;;;;;;;5.03;2.10;;;22.90;99.90;;;;;;5026568;28;20474;-50
2021/06/24 12:48:43;;;;;;;5.32;1.80;;;23.00;99.90;;;;;;5029282;28;20449;-50
2021/06/24 12:51:15;;;;;;;4.40;1.80;;;23.10;99.90;;;;;;5029905;28;20402;-51
2021/06/24 12:53:44;;;;;;;4.88;1.50;;;23.10;99.90;;;;;;5032620;28;20445;-51
2021/06/24 12:56:24;;;;;;;5.40;1.88;;;23.30;99.90;;;;;;5032279;28;20414;-53
2021/06/24 12:58:51;;;;;;;4.20;1.40;;;23.20;99.90;;;;;;5031046;28;20884;-50
2021/06/24 13:01:19;;;;;;;4.80;1.70;;;23.30;99.90;;;;;;5032620;28;20861;-50
2021/06/24 13:03:51;;;;;;;4.50;1.50;;;23.50;99.90;;;;;;5032383;28;20406;-50
2021/06/24 13:06:26;;;;;;;4.53;1.80;;;23.70;99.90;;;;;;5031083;28;20418;-50
2021/06/24 13:09:00;;;;;;;5.18;1.70;;;23.20;99.90;;;;;;5032771;28;20391;-50
2021/06/24 13:11:38;;;;;;;6.50;1.90;;;23.10;99.90;;;;;;5031236;28;20866;-50